Time,TemperatureF,DewpointF,PressureIn,WindDirection,WindDirectionDegrees,WindSpeedMPH,WindSpeedGustMPH,Humidity,HourlyPrecipIn,Conditions,Clouds,dailyrainin,SolarRadiationWatts/m^2,SoftwareType,DateUTC
2013-08-03 00:01:00,78.6,76.1,30.00,SSE,157,0.0,1.0,92,0.00,,,0.00,0.0,meteohub,2013-08-03 04:01:00,
2013-08-03 00:02:00,78.6,76.1,30.00,SSE,157,0.0,1.0,92,0.00,,,0.00,0.0,meteohub,2013-08-03 04:02:00,
2013-08-03 00:07:00,78.4,75.9,30.00,SSE,157,0.0,0.0,92,0.00,,,0.00,0.0,meteohub,2013-08-03 04:07:00,
2013-08-03 00:12:00,78.4,76.3,30.00,SSE,157,0.0,0.0,93,0.00,,,0.00,0.0,meteohub,2013-08-03 04:12:00,
2013-08-03 00:17:00,78.4,76.3,30.00,SSE,157,0.0,0.0,93,0.00,,,0.00,0.0,meteohub,2013-08-03 04:17:00,
2013-08-03 00:22:00,78.3,76.1,30.00,SSE,157,0.0,0.0,93,0.00,,,0.00,0.0,meteohub,2013-08-03 04:22:00,
2013-08-03 00:27:00,78.1,75.9,29.99,SSE,157,0.0,0.0,93,0.00,,,0.00,0.0,meteohub,2013-08-03 04:27:00,
2013-08-03 00:32:00,77.9,75.7,29.99,SSE,157,0.0,0.0,93,0.00,,,0.00,0.0,meteohub,2013-08-03 04:32:00,
2013-08-03 00:37:00,77.7,75.9,29.99,SSE,157,0.0,0.0,94,0.00,,,0.00,0.0,meteohub,2013-08-03 04:37:00,
2013-08-03 00:42:00,77.7,75.9,29.99,SSE,157,0.0,0.0,94,0.00,,,0.00,0.0,meteohub,2013-08-03 04:42:00,
2013-08-03 00:47:00,77.7,75.9,29.99,SSE,157,0.0,0.0,94,0.00,,,0.00,0.0,meteohub,2013-08-03 04:47:00,
2013-08-03 00:52:00,77.5,75.7,29.99,SSE,157,0.0,0.0,94,0.00,,,0.00,0.0,meteohub,2013-08-03 04:52:00,
2013-08-03 00:57:00,77.5,75.7,29.99,SSE,157,0.0,0.0,94,0.00,,,0.00,0.0,meteohub,2013-08-03 04:57:00,
2013-08-03 01:02:00,77.5,75.7,29.99,SSE,157,0.0,0.0,94,0.00,,,0.00,0.0,meteohub,2013-08-03 05:02:00,
2013-08-03 01:07:00,77.5,75.9,29.99,SSE,157,0.0,0.0,95,0.00,,,0.00,0.0,meteohub,2013-08-03 05:07:00,
2013-08-03 01:12:00,77.5,75.9,29.99,SSE,157,0.0,0.0,95,0.00,,,0.00,0.0,meteohub,2013-08-03 05:12:00,
2013-08-03 01:17:00,77.4,76.0,29.99,SSE,157,0.0,-999.0,95,-99.99,,,0.00,0,weatherlink.com 1.10,2013-08-03 05:17:00,
2013-08-03 01:22:00,77.4,75.7,29.99,SSE,157,0.0,0.0,95,0.00,,,0.00,0.0,meteohub,2013-08-03 05:22:00,
2013-08-03 01:27:00,77.4,75.7,29.99,SSE,157,0.0,0.0,95,0.00,,,0.00,0.0,meteohub,2013-08-03 05:27:00,
2013-08-03 01:32:00,77.4,75.7,29.99,SSE,157,0.0,0.0,95,0.00,,,0.00,0.0,meteohub,2013-08-03 05:32:00,
2013-08-03 01:37:00,77.2,75.6,29.99,SSE,157,0.0,0.0,95,0.00,,,0.00,0.0,meteohub,2013-08-03 05:37:00,
2013-08-03 01:42:00,77.2,75.6,29.99,SSE,157,0.0,0.0,95,0.00,,,0.00,0.0,meteohub,2013-08-03 05:42:00,
2013-08-03 01:47:00,77.2,75.6,29.99,SSE,157,0.0,0.0,95,0.00,,,0.00,0.0,meteohub,2013-08-03 05:47:00,
2013-08-03 01:52:00,77.2,75.6,29.98,SSE,157,0.0,0.0,95,0.00,,,0.00,0.0,meteohub,2013-08-03 05:52:00,
2013-08-03 01:57:00,77.2,75.6,29.98,SSE,157,0.0,0.0,95,0.00,,,0.00,0.0,meteohub,2013-08-03 05:57:00,
2013-08-03 02:02:00,77.2,75.6,29.98,SSE,157,0.0,0.0,95,0.00,,,0.00,0.0,meteohub,2013-08-03 06:02:00,
2013-08-03 02:08:00,77.0,75.7,29.98,SSE,157,0.0,0.0,96,0.00,,,0.00,0.0,meteohub,2013-08-03 06:08:00,
2013-08-03 02:13:00,76.8,75.6,29.98,SSE,157,0.0,0.0,96,0.00,,,0.00,0.0,meteohub,2013-08-03 06:13:00,
2013-08-03 02:18:00,76.6,75.4,29.98,SSE,157,0.0,0.0,96,0.00,,,0.00,0.0,meteohub,2013-08-03 06:18:00,
2013-08-03 02:23:00,76.5,75.2,29.98,SSE,157,0.0,0.0,96,0.00,,,0.00,0.0,meteohub,2013-08-03 06:23:00,
2013-08-03 02:27:00,76.6,75.4,29.98,SSE,157,0.0,0.0,96,0.00,,,0.00,0.0,meteohub,2013-08-03 06:27:00,
2013-08-03 02:33:00,76.6,75.4,29.98,SSE,157,0.0,0.0,96,0.00,,,0.00,0.0,meteohub,2013-08-03 06:33:00,
2013-08-03 02:38:00,76.6,75.4,29.97,SSE,157,0.0,0.0,96,0.00,,,0.00,0.0,meteohub,2013-08-03 06:38:00,
2013-08-03 02:42:00,76.6,75.4,29.97,SSE,157,0.0,0.0,96,0.00,,,0.00,0.0,meteohub,2013-08-03 06:42:00,
2013-08-03 02:47:00,76.6,75.4,29.97,SSE,157,0.0,0.0,96,0.00,,,0.00,0.0,meteohub,2013-08-03 06:47:00,
2013-08-03 02:53:00,76.5,75.2,29.97,SSE,157,0.0,0.0,96,0.00,,,0.00,0.0,meteohub,2013-08-03 06:53:00,
2013-08-03 02:58:00,76.5,75.2,29.97,SSE,157,0.0,0.0,96,0.00,,,0.00,0.0,meteohub,2013-08-03 06:58:00,
2013-08-03 03:03:00,76.5,75.2,29.96,SSE,157,0.0,0.0,96,0.00,,,0.00,0.0,meteohub,2013-08-03 07:03:00,
2013-08-03 03:08:00,76.5,75.2,29.96,SSE,157,0.0,0.0,96,0.00,,,0.00,0.0,meteohub,2013-08-03 07:08:00,
2013-08-03 03:13:00,76.3,75.4,29.96,SSE,157,0.0,0.0,97,0.00,,,0.00,0.0,meteohub,2013-08-03 07:13:00,
2013-08-03 03:18:00,76.3,75.0,29.96,SSE,157,0.0,0.0,96,0.00,,,0.00,0.0,meteohub,2013-08-03 07:18:00,
2013-08-03 03:23:00,76.3,75.0,29.96,SSE,157,0.0,0.0,96,0.00,,,0.00,0.0,meteohub,2013-08-03 07:23:00,
2013-08-03 03:28:00,76.1,74.8,29.96,SSE,157,0.0,0.0,96,0.00,,,0.00,0.0,meteohub,2013-08-03 07:28:00,
2013-08-03 03:33:00,75.9,74.7,29.96,SSE,157,0.0,0.0,96,0.00,,,0.00,0.0,meteohub,2013-08-03 07:33:00,
2013-08-03 03:38:00,76.1,75.2,29.96,SSE,157,0.0,0.0,97,0.00,,,0.00,0.0,meteohub,2013-08-03 07:38:00,
2013-08-03 03:43:00,76.1,75.2,29.96,SSE,157,0.0,0.0,97,0.00,,,0.00,0.0,meteohub,2013-08-03 07:43:00,
2013-08-03 03:48:00,75.9,75.0,29.96,SSE,157,0.0,0.0,97,0.00,,,0.00,0.0,meteohub,2013-08-03 07:48:00,
2013-08-03 03:53:00,75.7,74.8,29.96,SSE,157,0.0,0.0,97,0.00,,,0.00,0.0,meteohub,2013-08-03 07:53:00,
2013-08-03 03:58:00,75.6,74.3,29.96,SSE,157,0.0,0.0,96,0.00,,,0.00,0.0,meteohub,2013-08-03 07:58:00,
2013-08-03 04:03:00,75.6,74.7,29.96,SSE,157,0.0,0.0,97,0.00,,,0.00,0.0,meteohub,2013-08-03 08:03:00,
2013-08-03 04:08:00,75.4,74.5,29.96,SSE,157,0.0,0.0,97,0.00,,,0.00,0.0,meteohub,2013-08-03 08:08:00,
2013-08-03 04:13:00,75.4,74.5,29.96,SSE,157,0.0,0.0,97,0.00,,,0.00,0.0,meteohub,2013-08-03 08:13:00,
2013-08-03 04:18:00,75.2,74.3,29.96,SSE,157,0.0,0.0,97,0.00,,,0.00,0.0,meteohub,2013-08-03 08:18:00,
2013-08-03 04:23:00,75.0,74.1,29.96,SSE,157,0.0,0.0,97,0.00,,,0.00,0.0,meteohub,2013-08-03 08:23:00,
2013-08-03 04:28:00,75.0,74.1,29.96,SSE,157,0.0,0.0,97,0.00,,,0.00,0.0,meteohub,2013-08-03 08:28:00,
2013-08-03 04:33:00,74.8,73.9,29.96,SSE,157,0.0,0.0,97,0.00,,,0.00,0.0,meteohub,2013-08-03 08:33:00,
2013-08-03 04:38:00,74.8,73.9,29.96,SSE,157,0.0,0.0,97,0.00,,,0.00,0.0,meteohub,2013-08-03 08:38:00,
2013-08-03 04:43:00,74.8,73.9,29.96,SSE,157,0.0,0.0,97,0.00,,,0.00,0.0,meteohub,2013-08-03 08:43:00,
2013-08-03 04:48:00,74.8,73.9,29.96,SSE,157,0.0,0.0,97,0.00,,,0.00,0.0,meteohub,2013-08-03 08:48:00,
2013-08-03 04:53:00,74.8,73.9,29.96,SSE,157,0.0,0.0,97,0.00,,,0.00,0.0,meteohub,2013-08-03 08:53:00,
2013-08-03 04:58:00,74.8,73.9,29.96,SSE,157,0.0,0.0,97,0.00,,,0.00,0.0,meteohub,2013-08-03 08:58:00,
2013-08-03 05:03:00,74.7,73.8,29.96,SSE,157,0.0,0.0,97,0.00,,,0.00,0.0,meteohub,2013-08-03 09:03:00,
2013-08-03 05:08:00,74.7,73.8,29.96,SSE,157,0.0,0.0,97,0.00,,,0.00,0.0,meteohub,2013-08-03 09:08:00,
2013-08-03 05:13:00,74.7,73.8,29.96,SSE,157,0.0,0.0,97,0.00,,,0.00,0.0,meteohub,2013-08-03 09:13:00,
2013-08-03 05:18:00,74.7,73.8,29.96,SSE,157,0.0,0.0,97,0.00,,,0.00,0.0,meteohub,2013-08-03 09:18:00,
2013-08-03 05:23:00,74.7,73.8,29.96,SSE,157,0.0,0.0,97,0.00,,,0.00,0.0,meteohub,2013-08-03 09:23:00,
2013-08-03 05:28:00,74.5,73.6,29.96,SSE,157,0.0,0.0,97,0.00,,,0.00,0.0,meteohub,2013-08-03 09:28:00,
2013-08-03 05:33:00,74.5,73.6,29.96,SSE,157,0.0,0.0,97,0.00,,,0.00,0.0,meteohub,2013-08-03 09:33:00,
2013-08-03 05:38:00,74.5,73.6,29.96,SSE,157,0.0,0.0,97,0.00,,,0.00,0.0,meteohub,2013-08-03 09:38:00,
2013-08-03 05:43:00,74.3,73.4,29.96,SSE,157,0.0,0.0,97,0.00,,,0.00,0.0,meteohub,2013-08-03 09:43:00,
2013-08-03 05:48:00,74.3,73.4,29.97,SSE,157,0.0,0.0,97,0.00,,,0.00,0.0,meteohub,2013-08-03 09:48:00,
2013-08-03 05:53:00,74.1,73.2,29.97,SSE,157,0.0,0.0,97,0.00,,,0.00,0.0,meteohub,2013-08-03 09:53:00,
2013-08-03 05:58:00,74.1,73.2,29.97,SSE,157,0.0,0.0,97,0.00,,,0.00,0.0,meteohub,2013-08-03 09:58:00,
2013-08-03 06:03:00,74.1,73.2,29.97,SSE,157,0.0,0.0,97,0.00,,,0.00,0.0,meteohub,2013-08-03 10:03:00,
2013-08-03 06:08:00,74.1,73.2,29.97,SSE,157,0.0,0.0,97,0.00,,,0.00,0.0,meteohub,2013-08-03 10:08:00,
2013-08-03 06:13:00,74.1,73.2,29.97,SSE,157,0.0,0.0,97,0.00,,,0.00,0.0,meteohub,2013-08-03 10:13:00,
2013-08-03 06:18:00,74.1,73.2,29.97,SSE,157,0.0,0.0,97,0.00,,,0.00,0.0,meteohub,2013-08-03 10:18:00,
2013-08-03 06:23:00,73.9,73.0,29.97,SSE,157,0.0,0.0,97,0.00,,,0.00,0.0,meteohub,2013-08-03 10:23:00,
2013-08-03 06:29:00,73.9,73.0,29.97,SSE,157,0.0,0.0,97,0.00,,,0.00,0.0,meteohub,2013-08-03 10:29:00,
2013-08-03 06:34:00,73.8,72.9,29.97,SSE,157,0.0,0.0,97,0.00,,,0.00,0.0,meteohub,2013-08-03 10:34:00,
2013-08-03 06:39:00,73.8,72.9,29.97,SSE,157,0.0,0.0,97,0.00,,,0.00,0.0,meteohub,2013-08-03 10:39:00,
2013-08-03 06:43:00,73.9,73.0,29.97,SSE,157,0.0,0.0,97,0.00,,,0.00,0.0,meteohub,2013-08-03 10:43:00,
2013-08-03 06:49:00,73.9,73.4,29.97,SSE,157,0.0,0.0,98,0.00,,,0.00,0.0,meteohub,2013-08-03 10:49:00,
2013-08-03 06:54:00,73.8,72.9,29.97,SSE,157,0.0,0.0,97,0.00,,,0.00,9.0,meteohub,2013-08-03 10:54:00,
2013-08-03 06:59:00,73.8,72.9,29.97,SSE,157,0.0,0.0,97,0.00,,,0.00,12.0,meteohub,2013-08-03 10:59:00,
2013-08-03 07:04:00,73.8,72.9,29.97,SSE,157,0.0,0.0,97,0.00,,,0.00,18.0,meteohub,2013-08-03 11:04:00,
2013-08-03 07:09:00,73.8,73.2,29.97,SSE,157,0.0,0.0,98,0.00,,,0.00,21.0,meteohub,2013-08-03 11:09:00,
2013-08-03 07:14:00,73.8,73.2,29.97,SSE,157,0.0,0.0,98,0.00,,,0.00,26.0,meteohub,2013-08-03 11:14:00,
2013-08-03 07:19:00,73.9,73.4,29.97,SSE,157,0.0,0.0,98,0.00,,,0.00,30.0,meteohub,2013-08-03 11:19:00,
2013-08-03 07:24:00,74.1,73.2,29.97,SSE,157,0.0,0.0,97,0.00,,,0.00,65.0,meteohub,2013-08-03 11:24:00,
2013-08-03 07:29:00,74.5,73.9,29.97,SSE,157,0.0,0.0,98,0.00,,,0.00,77.0,meteohub,2013-08-03 11:29:00,
2013-08-03 07:34:00,74.8,74.3,29.97,SSE,157,0.0,0.0,98,0.00,,,0.00,90.0,meteohub,2013-08-03 11:34:00,
2013-08-03 07:39:00,75.0,74.5,29.97,SSE,157,0.0,0.0,98,0.00,,,0.00,104.0,meteohub,2013-08-03 11:39:00,
2013-08-03 07:44:00,75.6,75.0,29.97,SSE,157,0.0,0.0,98,0.00,,,0.00,120.0,meteohub,2013-08-03 11:44:00,
2013-08-03 07:49:00,75.9,75.4,29.98,SSE,157,0.0,0.0,98,0.00,,,0.00,134.0,meteohub,2013-08-03 11:49:00,
2013-08-03 07:54:00,76.5,75.9,29.98,SSE,157,0.0,0.0,98,0.00,,,0.00,148.0,meteohub,2013-08-03 11:54:00,
2013-08-03 07:59:00,77.2,76.6,29.98,SSE,157,0.0,0.0,98,0.00,,,0.00,158.0,meteohub,2013-08-03 11:59:00,
2013-08-03 08:04:00,77.7,77.2,29.98,SSE,157,0.0,0.0,98,0.00,,,0.00,179.0,meteohub,2013-08-03 12:04:00,
2013-08-03 08:09:00,78.3,77.4,29.98,SSE,157,0.0,0.0,97,0.00,,,0.00,192.0,meteohub,2013-08-03 12:09:00,
2013-08-03 08:14:00,78.8,77.9,29.98,SSE,157,0.0,0.0,97,0.00,,,0.00,216.0,meteohub,2013-08-03 12:14:00,
2013-08-03 08:19:00,79.3,78.1,29.98,SSE,157,0.0,0.0,96,0.00,,,0.00,241.0,meteohub,2013-08-03 12:19:00,
2013-08-03 08:24:00,80.1,78.3,29.98,SSE,157,0.0,0.0,94,0.00,,,0.00,262.0,meteohub,2013-08-03 12:24:00,
2013-08-03 08:29:00,80.6,77.7,29.98,SSE,157,0.0,0.0,91,0.00,,,0.00,281.0,meteohub,2013-08-03 12:29:00,
2013-08-03 08:34:00,81.3,77.7,29.98,SSE,157,0.0,0.0,89,0.00,,,0.00,292.0,meteohub,2013-08-03 12:34:00,
2013-08-03 08:39:00,82.0,77.7,29.98,SSE,157,0.0,0.0,87,0.00,,,0.00,311.0,meteohub,2013-08-03 12:39:00,
2013-08-03 08:44:00,82.2,77.5,29.99,SSE,157,0.0,0.0,86,0.00,,,0.00,329.0,meteohub,2013-08-03 12:44:00,
2013-08-03 08:49:00,82.8,78.1,29.99,SSE,157,0.0,0.0,86,0.00,,,0.00,345.0,meteohub,2013-08-03 12:49:00,
2013-08-03 08:54:00,83.1,77.0,29.99,WNW,295,0.0,0.0,82,0.00,,,0.00,364.0,meteohub,2013-08-03 12:54:00,
2013-08-03 08:59:00,82.9,76.8,29.99,WNW,294,0.0,0.0,82,0.00,,,0.00,380.0,meteohub,2013-08-03 12:59:00,
2013-08-03 09:04:00,82.9,77.2,29.99,WNW,294,0.0,0.0,83,0.00,,,0.00,401.0,meteohub,2013-08-03 13:04:00,
2013-08-03 09:09:00,82.9,76.8,29.99,WSW,254,0.0,0.0,82,0.00,,,0.00,418.0,meteohub,2013-08-03 13:09:00,
2013-08-03 09:14:00,83.5,77.7,29.99,SE,141,0.0,0.0,83,0.00,,,0.00,429.0,meteohub,2013-08-03 13:14:00,
2013-08-03 09:19:00,83.7,77.5,29.99,WNW,294,0.0,0.0,82,0.00,,,0.00,441.0,meteohub,2013-08-03 13:19:00,
2013-08-03 09:24:00,83.5,77.4,29.99,WNW,294,0.0,0.0,82,0.00,,,0.00,466.0,meteohub,2013-08-03 13:24:00,
2013-08-03 09:29:00,83.1,77.0,29.99,WNW,294,0.0,0.0,82,0.00,,,0.00,485.0,meteohub,2013-08-03 13:29:00,
2013-08-03 09:34:00,83.3,77.5,29.99,WNW,294,0.0,0.0,83,0.00,,,0.00,499.0,meteohub,2013-08-03 13:34:00,
2013-08-03 09:39:00,83.7,77.9,29.99,SSE,168,0.0,0.0,83,0.00,,,0.00,519.0,meteohub,2013-08-03 13:39:00,
2013-08-03 09:44:00,83.7,77.2,29.99,WNW,297,0.0,0.0,81,0.00,,,0.00,541.0,meteohub,2013-08-03 13:44:00,
2013-08-03 09:49:00,83.8,78.1,29.99,WSW,255,0.0,0.0,83,0.00,,,0.00,543.0,meteohub,2013-08-03 13:49:00,
2013-08-03 09:54:00,84.4,78.6,29.99,WNW,286,1.0,0.0,83,0.00,,,0.00,563.0,meteohub,2013-08-03 13:54:00,
2013-08-03 09:59:00,84.7,78.3,29.99,WNW,288,5.0,5.0,81,0.00,,,0.00,573.0,meteohub,2013-08-03 13:59:00,
2013-08-03 10:04:00,84.7,78.3,29.99,WNW,292,0.0,5.0,81,0.00,,,0.00,591.0,meteohub,2013-08-03 14:04:00,
2013-08-03 10:09:00,84.7,77.9,29.99,WNW,292,0.0,5.0,80,0.00,,,0.00,606.0,meteohub,2013-08-03 14:09:00,
2013-08-03 10:14:00,84.6,78.1,29.99,South,177,0.0,5.0,81,0.00,,,0.00,624.0,meteohub,2013-08-03 14:14:00,
2013-08-03 10:16:00,84.6,77.7,29.99,South,177,0.0,6.0,80,0.00,,,0.00,631.0,meteohub,2013-08-03 14:16:00,
2013-08-03 10:21:00,85.1,78.6,29.99,South,177,0.0,6.0,81,0.00,,,0.00,645.0,meteohub,2013-08-03 14:21:00,
2013-08-03 10:26:00,85.8,78.6,29.99,South,178,0.0,6.0,79,0.00,,,0.00,656.0,meteohub,2013-08-03 14:26:00,
2013-08-03 10:31:00,86.4,79.0,29.99,SSW,203,0.0,2.0,79,0.00,,,0.00,679.0,meteohub,2013-08-03 14:31:00,
2013-08-03 10:36:00,86.5,78.4,29.99,West,281,0.0,3.0,77,0.00,,,0.00,691.0,meteohub,2013-08-03 14:36:00,
2013-08-03 10:41:00,86.4,79.0,29.99,West,281,0.0,3.0,79,0.00,,,0.00,705.0,meteohub,2013-08-03 14:41:00,
2013-08-03 10:46:00,86.4,78.6,29.99,WNW,287,0.0,4.0,78,0.00,,,0.00,735.0,meteohub,2013-08-03 14:46:00,
2013-08-03 10:51:00,86.5,78.4,29.99,WNW,299,0.0,4.0,77,0.00,,,0.00,796.0,meteohub,2013-08-03 14:51:00,
2013-08-03 10:56:00,86.4,78.6,29.98,NW,321,2.0,4.0,78,0.00,,,0.00,288.0,meteohub,2013-08-03 14:56:00,
2013-08-03 11:01:00,86.4,79.5,29.98,WSW,254,0.0,5.0,80,0.00,,,0.00,782.0,meteohub,2013-08-03 15:01:00,
2013-08-03 11:06:00,86.7,79.9,29.98,WNW,298,0.0,5.0,80,0.00,,,0.00,814.0,meteohub,2013-08-03 15:06:00,
2013-08-03 11:11:00,87.1,79.3,29.98,WNW,291,3.0,5.0,78,0.00,,,0.00,810.0,meteohub,2013-08-03 15:11:00,
2013-08-03 11:16:00,87.1,79.7,29.99,WNW,290,0.0,7.0,79,0.00,,,0.00,800.0,meteohub,2013-08-03 15:16:00,
2013-08-03 11:21:00,87.4,79.3,29.98,WNW,289,0.0,7.0,77,0.00,,,0.00,810.0,meteohub,2013-08-03 15:21:00,
2013-08-03 11:26:00,87.6,79.5,29.98,WNW,289,0.0,7.0,77,0.00,,,0.00,830.0,meteohub,2013-08-03 15:26:00,
2013-08-03 11:31:00,87.6,79.5,29.98,WSW,238,0.0,5.0,77,0.00,,,0.00,893.0,meteohub,2013-08-03 15:31:00,
2013-08-03 11:37:00,87.8,80.1,29.98,West,272,0.0,4.0,78,0.00,,,0.00,882.0,meteohub,2013-08-03 15:37:00,
2013-08-03 11:42:00,88.2,80.1,29.98,South,180,0.0,4.0,77,0.00,,,0.00,935.0,meteohub,2013-08-03 15:42:00,
2013-08-03 11:47:00,88.3,79.0,29.98,NW,326,0.0,4.0,74,0.00,,,0.00,954.0,meteohub,2013-08-03 15:47:00,
2013-08-03 11:52:00,88.5,80.1,29.98,ESE,115,0.0,4.0,76,0.00,,,0.00,295.0,meteohub,2013-08-03 15:52:00,
2013-08-03 11:57:00,88.7,79.7,29.98,South,174,0.0,4.0,75,0.00,,,0.00,309.0,meteohub,2013-08-03 15:57:00,
2013-08-03 12:02:00,88.5,79.2,29.98,WNW,303,0.0,3.0,74,0.00,,,0.00,232.0,meteohub,2013-08-03 16:02:00,
2013-08-03 12:07:00,88.3,79.0,29.98,WSW,247,1.0,3.0,74,0.00,,,0.00,221.0,meteohub,2013-08-03 16:07:00,
2013-08-03 12:12:00,88.2,78.8,29.98,WSW,246,0.0,3.0,74,0.00,,,0.00,1049.0,meteohub,2013-08-03 16:12:00,
2013-08-03 12:17:00,88.5,79.5,29.98,WNW,301,4.0,4.0,75,0.00,,,0.00,318.0,meteohub,2013-08-03 16:17:00,
2013-08-03 12:22:00,88.5,79.5,29.98,WNW,292,2.0,4.0,75,0.00,,,0.00,325.0,meteohub,2013-08-03 16:22:00,
2013-08-03 12:27:00,88.3,79.0,29.97,WNW,295,3.0,6.0,74,0.00,,,0.00,1056.0,meteohub,2013-08-03 16:27:00,
2013-08-03 12:32:00,88.9,79.9,29.98,WNW,290,4.0,7.0,75,0.00,,,0.00,1056.0,meteohub,2013-08-03 16:32:00,
2013-08-03 12:37:00,89.1,80.4,29.98,WNW,287,0.0,7.0,76,0.00,,,0.00,998.0,meteohub,2013-08-03 16:37:00,
2013-08-03 12:43:00,89.2,78.6,29.98,SE,132,1.0,7.0,71,0.00,,,0.00,1023.0,meteohub,2013-08-03 16:43:00,
2013-08-03 12:48:00,89.8,79.5,29.98,SE,132,0.0,10.0,72,0.00,,,0.00,1051.0,meteohub,2013-08-03 16:48:00,
2013-08-03 12:53:00,90.0,79.3,29.98,WNW,296,0.0,10.0,71,0.00,,,0.00,1051.0,meteohub,2013-08-03 16:53:00,
2013-08-03 12:57:00,89.8,79.2,29.98,WNW,299,3.0,10.0,71,0.00,,,0.00,255.0,meteohub,2013-08-03 16:57:00,
2013-08-03 13:03:00,88.9,79.2,29.98,WNW,284,3.0,9.0,73,0.00,,,0.00,1079.0,meteohub,2013-08-03 17:03:00,
2013-08-03 13:07:00,89.2,80.2,29.98,WNW,285,5.0,9.0,75,0.00,,,0.00,1046.0,meteohub,2013-08-03 17:07:00,
2013-08-03 13:13:00,89.8,79.2,29.98,North,0,2.0,7.0,71,0.00,,,0.00,1025.0,meteohub,2013-08-03 17:13:00,
2013-08-03 13:18:00,89.8,78.6,29.98,NW,311,0.0,8.0,70,0.00,,,0.00,350.0,meteohub,2013-08-03 17:18:00,
2013-08-03 13:23:00,89.8,78.3,29.97,WNW,292,4.0,8.0,69,0.00,,,0.00,1092.0,meteohub,2013-08-03 17:23:00,
2013-08-03 13:28:00,90.0,79.3,29.97,West,276,3.0,8.0,71,0.00,,,0.00,981.0,meteohub,2013-08-03 17:28:00,
2013-08-03 13:33:00,90.1,79.5,29.97,West,264,0.0,7.0,71,0.00,,,0.00,969.0,meteohub,2013-08-03 17:33:00,
2013-08-03 13:38:00,90.3,80.1,29.97,NW,312,1.0,7.0,72,0.00,,,0.00,972.0,meteohub,2013-08-03 17:38:00,
2013-08-03 13:43:00,90.7,79.5,29.97,WNW,287,0.0,6.0,70,0.00,,,0.00,926.0,meteohub,2013-08-03 17:43:00,
2013-08-03 13:48:00,90.7,77.7,29.97,North,355,4.0,8.0,66,0.00,,,0.00,1027.0,meteohub,2013-08-03 17:48:00,
2013-08-03 13:53:00,90.9,78.8,29.96,WNW,283,0.0,10.0,68,0.00,,,0.00,1016.0,meteohub,2013-08-03 17:53:00,
2013-08-03 13:58:00,91.0,79.5,29.96,West,277,4.0,10.0,69,0.00,,,0.00,169.0,meteohub,2013-08-03 17:58:00,
2013-08-03 14:03:00,90.3,79.2,29.96,ENE,71,1.0,10.0,70,0.00,,,0.00,172.0,meteohub,2013-08-03 18:03:00,
2013-08-03 14:08:00,89.8,79.2,29.96,WSW,244,0.0,6.0,71,0.00,,,0.00,1055.0,meteohub,2013-08-03 18:08:00,
2013-08-03 14:13:00,90.1,79.0,29.96,WNW,301,4.0,6.0,70,0.00,,,0.00,972.0,meteohub,2013-08-03 18:13:00,
2013-08-03 14:18:00,90.3,78.3,29.96,WNW,295,1.0,6.0,68,0.00,,,0.00,195.0,meteohub,2013-08-03 18:18:00,
2013-08-03 14:23:00,89.8,77.7,29.96,NW,323,0.0,7.0,68,0.00,,,0.00,995.0,meteohub,2013-08-03 18:23:00,
2013-08-03 14:28:00,90.1,77.7,29.96,NE,40,4.0,7.0,67,0.00,,,0.00,884.0,meteohub,2013-08-03 18:28:00,
2013-08-03 14:33:00,90.7,77.7,29.96,NE,48,4.0,7.0,66,0.00,,,0.00,932.0,meteohub,2013-08-03 18:33:00,
2013-08-03 14:38:00,91.0,77.2,29.95,WNW,291,0.0,6.0,64,0.00,,,0.00,932.0,meteohub,2013-08-03 18:38:00,
2013-08-03 14:43:00,91.4,77.5,29.95,WNW,294,4.0,5.0,64,0.00,,,0.00,856.0,meteohub,2013-08-03 18:43:00,
2013-08-03 14:48:00,91.6,77.7,29.95,NE,47,0.0,8.0,64,0.00,,,0.00,701.0,meteohub,2013-08-03 18:48:00,
2013-08-03 14:53:00,91.8,78.3,29.95,West,277,0.0,8.0,65,0.00,,,0.00,506.0,meteohub,2013-08-03 18:53:00,
2013-08-03 14:58:00,91.9,79.0,29.95,WNW,297,0.0,8.0,66,0.00,,,0.00,420.0,meteohub,2013-08-03 18:58:00,
2013-08-03 15:03:00,92.3,78.3,29.95,WNW,296,0.0,6.0,64,0.00,,,0.00,846.0,meteohub,2013-08-03 19:03:00,
2013-08-03 15:08:00,92.5,78.4,29.95,NW,308,0.0,6.0,64,0.00,,,0.00,508.0,meteohub,2013-08-03 19:08:00,
2013-08-03 15:13:00,92.7,78.6,29.95,NW,308,0.0,3.0,64,0.00,,,0.00,900.0,meteohub,2013-08-03 19:13:00,
2013-08-03 15:18:00,93.2,78.3,29.94,NW,307,0.0,3.0,62,0.00,,,0.00,798.0,meteohub,2013-08-03 19:18:00,
2013-08-03 15:23:00,93.6,77.5,29.94,NE,44,1.0,3.0,60,0.00,,,0.00,793.0,meteohub,2013-08-03 19:23:00,
2013-08-03 15:28:00,93.0,77.5,29.94,NNW,341,0.0,3.0,61,0.00,,,0.00,745.0,meteohub,2013-08-03 19:28:00,
2013-08-03 15:33:00,92.8,78.8,29.93,NNW,341,0.0,4.0,64,0.00,,,0.00,301.0,meteohub,2013-08-03 19:33:00,
2013-08-03 15:38:00,92.7,81.0,29.93,SSE,162,2.0,4.0,69,0.00,,,0.00,826.0,meteohub,2013-08-03 19:38:00,
2013-08-03 15:44:00,91.9,81.1,29.93,SSE,164,1.0,4.0,71,0.00,,,0.00,795.0,meteohub,2013-08-03 19:44:00,
2013-08-03 15:49:00,91.6,81.3,29.93,East,79,0.0,7.0,72,0.00,,,0.00,795.0,meteohub,2013-08-03 19:49:00,
2013-08-03 15:54:00,91.2,81.3,29.93,ESE,113,0.0,7.0,73,0.00,,,0.00,729.0,meteohub,2013-08-03 19:54:00,
2013-08-03 15:59:00,91.0,81.5,29.93,NE,51,0.0,4.0,74,0.00,,,0.00,292.0,meteohub,2013-08-03 19:59:00,
2013-08-03 16:04:00,90.7,80.8,29.93,ESE,105,0.0,4.0,73,0.00,,,0.00,264.0,meteohub,2013-08-03 20:04:00,
2013-08-03 16:09:00,90.3,80.4,29.93,East,89,0.0,5.0,73,0.00,,,0.00,462.0,meteohub,2013-08-03 20:09:00,
2013-08-03 16:14:00,90.1,80.2,29.93,ESE,114,0.0,5.0,73,0.00,,,0.00,216.0,meteohub,2013-08-03 20:14:00,
2013-08-03 16:19:00,90.0,80.1,29.93,South,169,2.0,5.0,73,0.00,,,0.00,171.0,meteohub,2013-08-03 20:19:00,
2013-08-03 16:24:00,89.4,80.4,29.93,ESE,121,2.0,5.0,75,0.00,,,0.00,162.0,meteohub,2013-08-03 20:24:00,
2013-08-03 16:29:00,89.1,80.1,29.93,SSE,154,0.0,6.0,75,0.00,,,0.00,142.0,meteohub,2013-08-03 20:29:00,
2013-08-03 16:34:00,88.9,79.9,29.93,SE,131,0.0,6.0,75,0.00,,,0.00,192.0,meteohub,2013-08-03 20:34:00,
2013-08-03 16:39:00,88.7,79.7,29.93,ESE,107,1.0,6.0,75,0.00,,,0.00,206.0,meteohub,2013-08-03 20:39:00,
2013-08-03 16:44:00,88.5,79.5,29.92,ESE,105,4.0,5.0,75,0.00,,,0.00,221.0,meteohub,2013-08-03 20:44:00,
2013-08-03 16:49:00,88.3,79.3,29.93,SE,137,0.0,4.0,75,0.00,,,0.00,204.0,meteohub,2013-08-03 20:49:00,
2013-08-03 16:54:00,88.3,79.3,29.92,SE,134,0.0,4.0,75,0.00,,,0.00,185.0,meteohub,2013-08-03 20:54:00,
2013-08-03 16:59:00,88.3,79.3,29.92,SSE,156,1.0,4.0,75,0.00,,,0.00,176.0,meteohub,2013-08-03 20:59:00,
2013-08-03 17:04:00,88.3,79.3,29.92,SSE,161,1.0,5.0,75,0.00,,,0.00,183.0,meteohub,2013-08-03 21:04:00,
2013-08-03 17:09:00,88.3,79.3,29.92,ESE,115,0.0,5.0,75,0.00,,,0.00,239.0,meteohub,2013-08-03 21:09:00,
2013-08-03 17:14:00,88.3,79.3,29.92,SSE,156,1.0,5.0,75,0.00,,,0.00,388.0,meteohub,2013-08-03 21:14:00,
2013-08-03 17:19:00,88.3,79.0,29.93,SSE,161,1.0,4.0,74,0.00,,,0.00,221.0,meteohub,2013-08-03 21:19:00,
2013-08-03 17:24:00,88.2,78.8,29.92,SE,130,0.0,4.0,74,0.00,,,0.00,213.0,meteohub,2013-08-03 21:24:00,
2013-08-03 17:29:00,88.0,79.0,29.93,South,179,0.0,6.0,75,0.00,,,0.00,183.0,meteohub,2013-08-03 21:29:00,
2013-08-03 17:34:00,87.8,78.8,29.92,South,175,0.0,6.0,75,0.00,,,0.00,105.0,meteohub,2013-08-03 21:34:00,
2013-08-03 17:39:00,87.3,78.8,29.93,SSE,165,0.0,6.0,76,0.00,,,0.00,90.0,meteohub,2013-08-03 21:39:00,
2013-08-03 17:44:00,87.1,78.6,29.93,SSW,211,0.0,4.0,76,0.00,,,0.00,132.0,meteohub,2013-08-03 21:44:00,
2013-08-03 17:49:00,86.7,78.6,29.93,WNW,287,1.0,4.0,77,0.00,,,0.00,123.0,meteohub,2013-08-03 21:49:00,
2013-08-03 17:54:00,86.2,80.1,29.94,NNE,22,0.0,4.0,82,0.00,,,0.00,123.0,meteohub,2013-08-03 21:54:00,
2013-08-03 17:59:00,84.7,79.7,29.94,NNE,21,0.0,5.0,85,0.05,,,0.05,113.0,meteohub,2013-08-03 21:59:00,
2013-08-03 18:04:00,84.0,79.7,29.94,NNE,21,0.0,5.0,87,0.05,,,0.05,125.0,meteohub,2013-08-03 22:04:00,
2013-08-03 18:09:00,83.5,79.5,29.93,NNE,21,0.0,5.0,88,0.05,,,0.05,123.0,meteohub,2013-08-03 22:09:00,
2013-08-03 18:14:00,82.9,79.7,29.93,NNE,22,0.0,0.0,90,0.05,,,0.05,132.0,meteohub,2013-08-03 22:14:00,
2013-08-03 18:19:00,82.6,79.3,29.93,NNE,21,0.0,1.0,90,0.05,,,0.05,149.0,meteohub,2013-08-03 22:19:00,
2013-08-03 18:24:00,82.6,79.7,29.93,NNE,22,0.0,1.0,91,0.05,,,0.05,162.0,meteohub,2013-08-03 22:24:00,
2013-08-03 18:29:00,82.8,80.2,29.93,NNE,22,0.0,1.0,92,0.05,,,0.05,176.0,meteohub,2013-08-03 22:29:00,
2013-08-03 18:34:00,83.1,81.0,29.93,NNE,21,0.0,0.0,93,0.05,,,0.05,171.0,meteohub,2013-08-03 22:34:00,
2013-08-03 18:39:00,83.3,80.4,29.93,NNE,21,0.0,1.0,91,0.05,,,0.05,155.0,meteohub,2013-08-03 22:39:00,
2013-08-03 18:44:00,83.7,80.8,29.93,NNE,22,0.0,1.0,91,0.05,,,0.05,125.0,meteohub,2013-08-03 22:44:00,
2013-08-03 18:49:00,84.2,81.0,29.93,NNE,22,0.0,0.0,90,0.05,,,0.05,104.0,meteohub,2013-08-03 22:49:00,
2013-08-03 18:54:00,84.4,81.1,29.93,NNE,22,0.0,0.0,90,0.05,,,0.05,91.0,meteohub,2013-08-03 22:54:00,
2013-08-03 18:59:00,84.4,80.8,29.93,NNE,22,0.0,0.0,89,0.00,,,0.05,74.0,meteohub,2013-08-03 22:59:00,
2013-08-03 19:04:00,84.4,80.8,29.93,NNE,22,0.0,0.0,89,0.00,,,0.05,72.0,meteohub,2013-08-03 23:04:00,
2013-08-03 19:09:00,84.2,80.6,29.93,NNE,21,0.0,0.0,89,0.00,,,0.05,69.0,meteohub,2013-08-03 23:09:00,
2013-08-03 19:14:00,84.0,80.8,29.93,NNE,22,0.0,0.0,90,0.00,,,0.05,60.0,meteohub,2013-08-03 23:14:00,
2013-08-03 19:19:00,84.2,81.0,29.93,NNE,21,0.0,0.0,90,0.00,,,0.05,60.0,meteohub,2013-08-03 23:19:00,
2013-08-03 19:24:00,84.0,81.1,29.93,NNE,21,0.0,0.0,91,0.00,,,0.05,47.0,meteohub,2013-08-03 23:24:00,
2013-08-03 19:29:00,83.8,81.0,29.93,NNE,22,0.0,0.0,91,0.00,,,0.05,44.0,meteohub,2013-08-03 23:29:00,
2013-08-03 19:34:00,83.3,80.4,29.93,NNE,22,0.0,0.0,91,0.00,,,0.05,44.0,meteohub,2013-08-03 23:34:00,
2013-08-03 19:39:00,82.9,80.4,29.93,NNE,22,0.0,0.0,92,0.00,,,0.05,40.0,meteohub,2013-08-03 23:39:00,
2013-08-03 19:44:00,82.6,80.1,29.93,NNE,22,0.0,0.0,92,0.00,,,0.05,37.0,meteohub,2013-08-03 23:44:00,
2013-08-03 19:50:00,82.6,80.4,29.94,NNE,21,0.0,0.0,93,0.00,,,0.05,32.0,meteohub,2013-08-03 23:50:00,
2013-08-03 19:54:00,82.6,80.4,29.94,NNE,22,0.0,0.0,93,0.00,,,0.05,25.0,meteohub,2013-08-03 23:54:00,
2013-08-03 20:00:00,82.4,80.2,29.94,NNE,21,0.0,0.0,93,0.00,,,0.05,16.0,meteohub,2013-08-04 00:00:00,
2013-08-03 20:02:00,82.2,80.1,29.94,ESE,109,3.0,0.0,93,0.00,,,0.05,12.0,meteohub,2013-08-04 00:02:00,
2013-08-03 20:06:00,82.0,79.5,29.95,ESE,109,0.0,0.0,92,0.00,,,0.05,9.0,meteohub,2013-08-04 00:06:00,
2013-08-03 20:12:00,82.2,79.7,29.95,ESE,109,0.0,3.0,92,0.00,,,0.05,5.0,meteohub,2013-08-04 00:12:00,
2013-08-03 20:17:00,82.1,79.0,29.95,ESE,109,0.0,-999.0,91,-99.99,,,0.05,0,weatherlink.com 1.10,2013-08-04 00:17:00,
2013-08-03 20:22:00,82.0,79.5,29.95,ESE,109,0.0,0.0,92,0.00,,,0.05,0.0,meteohub,2013-08-04 00:22:00,
2013-08-03 20:27:00,82.0,79.2,29.95,WSW,241,0.0,1.0,91,0.00,,,0.05,0.0,meteohub,2013-08-04 00:27:00,
2013-08-03 20:33:00,81.9,79.0,29.95,South,190,0.0,2.0,91,0.00,,,0.05,0.0,meteohub,2013-08-04 00:33:00,
2013-08-03 20:38:00,81.9,79.0,29.96,South,191,0.0,2.0,91,0.00,,,0.05,0.0,meteohub,2013-08-04 00:38:00,
2013-08-03 20:43:00,81.9,78.6,29.96,SSE,163,0.0,3.0,90,0.00,,,0.05,0.0,meteohub,2013-08-04 00:43:00,
2013-08-03 20:47:00,81.9,78.3,29.96,South,169,0.0,3.0,89,0.00,,,0.05,0.0,meteohub,2013-08-04 00:47:00,
2013-08-03 20:53:00,82.0,78.4,29.97,South,170,0.0,3.0,89,0.00,,,0.05,0.0,meteohub,2013-08-04 00:53:00,
2013-08-03 20:58:00,82.0,78.4,29.97,South,170,0.0,3.0,89,0.00,,,0.05,0.0,meteohub,2013-08-04 00:58:00,
2013-08-03 21:03:00,82.0,78.1,29.97,South,170,0.0,3.0,88,0.00,,,0.05,0.0,meteohub,2013-08-04 01:03:00,
2013-08-03 21:08:00,82.0,78.8,29.97,South,169,0.0,1.0,90,0.00,,,0.05,0.0,meteohub,2013-08-04 01:08:00,
2013-08-03 21:13:00,81.7,78.8,29.97,South,170,0.0,1.0,91,0.00,,,0.05,0.0,meteohub,2013-08-04 01:13:00,
2013-08-03 21:18:00,81.1,78.6,29.98,South,170,0.0,1.0,92,0.00,,,0.05,0.0,meteohub,2013-08-04 01:18:00,
2013-08-03 21:23:00,80.8,78.6,29.98,South,169,0.0,0.0,93,0.00,,,0.05,0.0,meteohub,2013-08-04 01:23:00,
2013-08-03 21:28:00,80.6,78.6,29.98,South,170,0.0,0.0,94,0.00,,,0.05,0.0,meteohub,2013-08-04 01:28:00,
2013-08-03 21:33:00,80.4,78.6,29.98,South,169,0.0,0.0,94,0.00,,,0.05,0.0,meteohub,2013-08-04 01:33:00,
2013-08-03 21:38:00,80.2,78.4,29.97,South,170,0.0,0.0,94,0.00,,,0.05,0.0,meteohub,2013-08-04 01:38:00,
2013-08-03 21:43:00,80.2,78.4,29.98,South,169,0.0,0.0,94,0.00,,,0.05,0.0,meteohub,2013-08-04 01:43:00,
2013-08-03 21:48:00,80.1,78.3,29.98,South,169,0.0,0.0,94,0.00,,,0.05,0.0,meteohub,2013-08-04 01:48:00,
2013-08-03 21:53:00,80.1,78.3,29.98,South,170,0.0,0.0,94,0.00,,,0.05,0.0,meteohub,2013-08-04 01:53:00,
2013-08-03 21:58:00,80.1,78.3,29.98,South,170,0.0,0.0,94,0.00,,,0.05,0.0,meteohub,2013-08-04 01:58:00,
2013-08-03 22:03:00,80.1,77.9,29.99,South,172,0.0,1.0,93,0.00,,,0.05,0.0,meteohub,2013-08-04 02:03:00,
2013-08-03 22:08:00,80.1,77.9,29.99,South,172,0.0,1.0,93,0.00,,,0.05,0.0,meteohub,2013-08-04 02:08:00,
2013-08-03 22:13:00,80.2,77.7,29.99,South,172,0.0,1.0,92,0.00,,,0.05,0.0,meteohub,2013-08-04 02:13:00,
2013-08-03 22:18:00,80.4,77.9,29.99,South,172,0.0,1.0,92,0.00,,,0.05,0.0,meteohub,2013-08-04 02:18:00,
2013-08-03 22:23:00,80.4,77.9,29.99,South,172,0.0,1.0,92,0.00,,,0.05,0.0,meteohub,2013-08-04 02:23:00,
2013-08-03 22:28:00,80.6,77.7,29.99,South,172,0.0,2.0,91,0.00,,,0.05,0.0,meteohub,2013-08-04 02:28:00,
2013-08-03 22:33:00,80.6,77.7,29.99,South,172,0.0,2.0,91,0.00,,,0.05,0.0,meteohub,2013-08-04 02:33:00,
2013-08-03 22:38:00,80.6,77.7,29.99,South,172,0.0,2.0,91,0.00,,,0.05,0.0,meteohub,2013-08-04 02:38:00,
2013-08-03 22:43:00,80.4,77.5,29.99,South,172,0.0,1.0,91,0.00,,,0.05,0.0,meteohub,2013-08-04 02:43:00,
2013-08-03 22:48:00,80.4,77.5,29.99,South,172,0.0,1.0,91,0.00,,,0.05,0.0,meteohub,2013-08-04 02:48:00,
2013-08-03 22:53:00,80.4,77.5,29.99,SSE,159,0.0,1.0,91,0.00,,,0.05,0.0,meteohub,2013-08-04 02:53:00,
2013-08-03 22:58:00,80.4,77.2,29.99,SSE,164,0.0,2.0,90,0.00,,,0.05,0.0,meteohub,2013-08-04 02:58:00,
2013-08-03 23:03:00,80.4,77.2,29.99,SW,221,0.0,2.0,90,0.00,,,0.05,0.0,meteohub,2013-08-04 03:03:00,
2013-08-03 23:08:00,80.4,77.2,29.99,SSW,200,0.0,2.0,90,0.00,,,0.05,0.0,meteohub,2013-08-04 03:08:00,
2013-08-03 23:13:00,80.4,77.2,29.99,SW,227,0.0,4.0,90,0.00,,,0.05,0.0,meteohub,2013-08-04 03:13:00,
2013-08-03 23:18:00,80.2,77.0,29.99,NW,315,0.0,4.0,90,0.00,,,0.05,0.0,meteohub,2013-08-04 03:18:00,
2013-08-03 23:23:00,80.2,77.0,29.99,NW,315,0.0,4.0,90,0.00,,,0.05,0.0,meteohub,2013-08-04 03:23:00,
2013-08-03 23:28:00,80.2,77.0,29.99,NW,315,1.0,4.0,90,0.00,,,0.05,0.0,meteohub,2013-08-04 03:28:00,
2013-08-03 23:33:00,80.1,76.8,29.99,WSW,248,0.0,4.0,90,0.00,,,0.05,0.0,meteohub,2013-08-04 03:33:00,
2013-08-03 23:38:00,80.1,76.5,29.99,SW,222,0.0,4.0,89,0.00,,,0.05,0.0,meteohub,2013-08-04 03:38:00,
2013-08-03 23:44:00,79.9,76.3,29.99,SSW,199,0.0,4.0,89,0.00,,,0.05,0.0,meteohub,2013-08-04 03:44:00,
2013-08-03 23:49:00,79.9,76.6,29.98,SSW,199,0.0,4.0,90,0.00,,,0.05,0.0,meteohub,2013-08-04 03:49:00,
2013-08-03 23:53:00,79.7,76.1,29.98,SSW,200,0.0,1.0,89,0.00,,,0.05,0.0,meteohub,2013-08-04 03:53:00,
2013-08-03 23:59:00,79.5,76.3,29.98,SSW,200,0.0,1.0,90,0.00,,,0.05,0.0,meteohub,2013-08-04 03:59:00,